sensor_id;sensor_type;location;lat;lon;timestamp;pressure;altitude;pressure_sealevel;temperature;humidity
69219;BME280;56232;53.384;-2.732;2023-01-31T00:01:35;101952.04;;;5.32;41.55
69219;BME280;56232;53.384;-2.732;2023-01-31T00:04:06;101942.90;;;5.08;41.77
69219;BME280;56232;53.384;-2.732;2023-01-31T00:06:27;101933.68;;;6.07;41.75
69219;BME280;56232;53.384;-2.732;2023-01-31T00:08:52;101932.31;;;5.44;41.93
69219;BME280;56232;53.384;-2.732;2023-01-31T00:11:20;101931.78;;;5.40;41.98
69219;BME280;56232;53.384;-2.732;2023-01-31T00:13:43;101931.36;;;4.79;42.24
69219;BME280;56232;53.384;-2.732;2023-01-31T00:16:09;101928.51;;;4.67;42.57
69219;BME280;56232;53.384;-2.732;2023-01-31T00:18:34;101922.81;;;4.63;42.74
69219;BME280;56232;53.384;-2.732;2023-01-31T00:21:05;101914.77;;;5.91;42.67
69219;BME280;56232;53.384;-2.732;2023-01-31T00:23:30;101907.20;;;5.01;42.63
69219;BME280;56232;53.384;-2.732;2023-01-31T00:26:06;101896.48;;;5.26;42.44
69219;BME280;56232;53.384;-2.732;2023-01-31T00:28:18;101895.66;;;5.44;42.37
69219;BME280;56232;53.384;-2.732;2023-01-31T00:30:42;101898.35;;;5.75;42.11
69219;BME280;56232;53.384;-2.732;2023-01-31T00:33:08;101891.26;;;6.01;41.82
69219;BME280;56232;53.384;-2.732;2023-01-31T00:35:37;101886.96;;;6.18;41.73
69219;BME280;56232;53.384;-2.732;2023-01-31T00:37:59;101885.75;;;6.37;41.60
69219;BME280;56232;53.384;-2.732;2023-01-31T00:40:25;101890.31;;;6.41;41.63
69219;BME280;56232;53.384;-2.732;2023-01-31T00:42:51;101881.22;;;6.54;41.60
69219;BME280;56232;53.384;-2.732;2023-01-31T00:45:17;101881.56;;;6.97;41.68
69219;BME280;56232;53.384;-2.732;2023-01-31T00:47:42;101876.62;;;6.52;41.77
69219;BME280;56232;53.384;-2.732;2023-01-31T00:50:12;101860.23;;;6.49;41.80
69219;BME280;56232;53.384;-2.732;2023-01-31T00:52:34;101859.07;;;6.01;41.81
69219;BME280;56232;53.384;-2.732;2023-01-31T00:54:59;101856.89;;;6.66;41.69
69219;BME280;56232;53.384;-2.732;2023-01-31T00:57:31;101856.93;;;6.67;41.74
69219;BME280;56232;53.384;-2.732;2023-01-31T00:59:51;101854.85;;;6.84;41.61
69219;BME280;56232;53.384;-2.732;2023-01-31T01:02:22;101838.89;;;6.14;41.54
69219;BME280;56232;53.384;-2.732;2023-01-31T01:04:48;101834.59;;;5.40;41.83
69219;BME280;56232;53.384;-2.732;2023-01-31T01:07:08;101830.54;;;6.42;41.94
69219;BME280;56232;53.384;-2.732;2023-01-31T01:09:34;101827.60;;;6.29;42.10
69219;BME280;56232;53.384;-2.732;2023-01-31T01:12:00;101825.59;;;6.28;42.20
69219;BME280;56232;53.384;-2.732;2023-01-31T01:14:25;101826.99;;;6.24;42.29
69219;BME280;56232;53.384;-2.732;2023-01-31T01:16:50;101822.74;;;6.46;42.19
69219;BME280;56232;53.384;-2.732;2023-01-31T01:19:18;101815.39;;;5.45;42.10
69219;BME280;56232;53.384;-2.732;2023-01-31T01:21:42;101810.44;;;6.14;42.06
69219;BME280;56232;53.384;-2.732;2023-01-31T01:24:16;101815.99;;;6.69;42.06
69219;BME280;56232;53.384;-2.732;2023-01-31T01:26:34;101820.85;;;6.92;41.96
69219;BME280;56232;53.384;-2.732;2023-01-31T01:29:00;101823.61;;;6.55;41.82
69219;BME280;56232;53.384;-2.732;2023-01-31T01:31:26;101823.80;;;7.18;41.73
69219;BME280;56232;53.384;-2.732;2023-01-31T01:33:50;101827.81;;;6.72;41.65
69219;BME280;56232;53.384;-2.732;2023-01-31T01:36:18;101822.95;;;6.15;41.68
69219;BME280;56232;53.384;-2.732;2023-01-31T01:38:48;101828.90;;;6.29;41.59
69219;BME280;56232;53.384;-2.732;2023-01-31T01:41:09;101822.59;;;6.29;41.54
69219;BME280;56232;53.384;-2.732;2023-01-31T01:43:39;101823.45;;;6.86;41.65
69219;BME280;56232;53.384;-2.732;2023-01-31T01:45:59;101819.79;;;6.97;41.62
69219;BME280;56232;53.384;-2.732;2023-01-31T01:48:30;101815.28;;;7.47;41.66
69219;BME280;56232;53.384;-2.732;2023-01-31T01:50:50;101815.55;;;7.07;41.62
69219;BME280;56232;53.384;-2.732;2023-01-31T01:53:24;101813.15;;;6.57;41.53
69219;BME280;56232;53.384;-2.732;2023-01-31T01:55:44;101815.19;;;6.68;41.45
69219;BME280;56232;53.384;-2.732;2023-01-31T01:58:10;101815.26;;;6.77;41.41
69219;BME280;56232;53.384;-2.732;2023-01-31T02:00:34;101808.75;;;7.43;41.32
69219;BME280;56232;53.384;-2.732;2023-01-31T02:03:00;101804.05;;;6.89;41.28
69219;BME280;56232;53.384;-2.732;2023-01-31T02:05:28;101802.26;;;6.99;41.22
69219;BME280;56232;53.384;-2.732;2023-01-31T02:07:50;101805.13;;;7.12;41.22
69219;BME280;56232;53.384;-2.732;2023-01-31T02:10:20;101804.10;;;7.27;41.10
69219;BME280;56232;53.384;-2.732;2023-01-31T02:12:41;101804.04;;;7.20;41.13
69219;BME280;56232;53.384;-2.732;2023-01-31T02:15:08;101797.15;;;6.69;41.25
69219;BME280;56232;53.384;-2.732;2023-01-31T02:17:32;101798.24;;;7.26;41.23
69219;BME280;56232;53.384;-2.732;2023-01-31T02:20:09;101802.19;;;7.30;41.35
69219;BME280;56232;53.384;-2.732;2023-01-31T02:22:26;101795.73;;;7.51;41.25
69219;BME280;56232;53.384;-2.732;2023-01-31T02:27:27;101794.33;;;7.86;40.88
69219;BME280;56232;53.384;-2.732;2023-01-31T02:30:10;101793.35;;;7.94;40.72
69219;BME280;56232;53.384;-2.732;2023-01-31T02:32:18;101791.00;;;7.56;40.70
69219;BME280;56232;53.384;-2.732;2023-01-31T02:34:36;101786.33;;;8.21;40.60
69219;BME280;56232;53.384;-2.732;2023-01-31T02:37:04;101789.13;;;8.29;40.51
69219;BME280;56232;53.384;-2.732;2023-01-31T02:39:27;101783.75;;;8.35;40.37
69219;BME280;56232;53.384;-2.732;2023-01-31T02:41:53;101779.82;;;8.41;40.36
69219;BME280;56232;53.384;-2.732;2023-01-31T02:44:20;101771.79;;;8.46;40.38
69219;BME280;56232;53.384;-2.732;2023-01-31T02:46:44;101770.12;;;7.50;40.35
69219;BME280;56232;53.384;-2.732;2023-01-31T02:49:11;101768.47;;;8.16;40.21
69219;BME280;56232;53.384;-2.732;2023-01-31T02:51:35;101764.39;;;8.32;39.98
69219;BME280;56232;53.384;-2.732;2023-01-31T02:54:02;101762.34;;;8.90;39.89
69219;BME280;56232;53.384;-2.732;2023-01-31T02:56:25;101758.42;;;8.44;39.85
69219;BME280;56232;53.384;-2.732;2023-01-31T02:58:53;101759.01;;;7.97;39.98
69219;BME280;56232;53.384;-2.732;2023-01-31T03:01:22;101756.41;;;8.40;39.86
69219;BME280;56232;53.384;-2.732;2023-01-31T03:03:40;101755.41;;;8.04;39.84
69219;BME280;56232;53.384;-2.732;2023-01-31T03:06:11;101754.48;;;8.17;39.74
69219;BME280;56232;53.384;-2.732;2023-01-31T03:08:30;101748.68;;;8.28;39.51
69219;BME280;56232;53.384;-2.732;2023-01-31T03:11:01;101741.37;;;8.29;39.36
69219;BME280;56232;53.384;-2.732;2023-01-31T03:13:32;101733.36;;;8.84;39.26
69219;BME280;56232;53.384;-2.732;2023-01-31T03:15:57;101729.32;;;8.90;39.37
69219;BME280;56232;53.384;-2.732;2023-01-31T03:18:16;101726.23;;;8.47;39.11
69219;BME280;56232;53.384;-2.732;2023-01-31T03:20:45;101724.26;;;8.89;39.37
69219;BME280;56232;53.384;-2.732;2023-01-31T03:23:08;101719.14;;;8.83;39.51
69219;BME280;56232;53.384;-2.732;2023-01-31T03:25:33;101709.90;;;8.29;39.57
69219;BME280;56232;53.384;-2.732;2023-01-31T03:27:59;101707.45;;;8.29;39.38
69219;BME280;56232;53.384;-2.732;2023-01-31T03:30:26;101711.34;;;8.64;39.71
69219;BME280;56232;53.384;-2.732;2023-01-31T03:32:50;101705.17;;;8.74;39.83
69219;BME280;56232;53.384;-2.732;2023-01-31T03:35:13;101698.98;;;8.25;39.84
69219;BME280;56232;53.384;-2.732;2023-01-31T03:37:43;101690.87;;;8.01;40.30
69219;BME280;56232;53.384;-2.732;2023-01-31T03:40:07;101691.03;;;7.90;40.53
69219;BME280;56232;53.384;-2.732;2023-01-31T03:44:59;101691.88;;;8.15;40.34
69219;BME280;56232;53.384;-2.732;2023-01-31T03:47:23;101690.06;;;8.74;40.22
69219;BME280;56232;53.384;-2.732;2023-01-31T03:49:47;101686.66;;;8.83;40.18
69219;BME280;56232;53.384;-2.732;2023-01-31T03:52:15;101683.60;;;9.20;40.32
69219;BME280;56232;53.384;-2.732;2023-01-31T03:54:41;101681.75;;;8.50;40.73
69219;BME280;56232;53.384;-2.732;2023-01-31T03:57:06;101680.73;;;7.96;40.89
69219;BME280;56232;53.384;-2.732;2023-01-31T03:59:33;101681.05;;;8.46;40.97
69219;BME280;56232;53.384;-2.732;2023-01-31T04:01:56;101682.56;;;8.19;40.75
69219;BME280;56232;53.384;-2.732;2023-01-31T04:04:24;101684.63;;;8.31;40.75
69219;BME280;56232;53.384;-2.732;2023-01-31T04:06:45;101691.82;;;8.80;40.75
69219;BME280;56232;53.384;-2.732;2023-01-31T04:09:11;101687.50;;;7.59;40.90
69219;BME280;56232;53.384;-2.732;2023-01-31T04:11:39;101694.71;;;8.03;41.10
69219;BME280;56232;53.384;-2.732;2023-01-31T04:14:03;101693.11;;;8.45;41.24
69219;BME280;56232;53.384;-2.732;2023-01-31T04:16:28;101697.16;;;8.48;41.32
69219;BME280;56232;53.384;-2.732;2023-01-31T04:18:54;101699.73;;;8.11;41.19
69219;BME280;56232;53.384;-2.732;2023-01-31T04:21:20;101699.66;;;8.78;41.11
69219;BME280;56232;53.384;-2.732;2023-01-31T04:23:45;101704.10;;;7.82;40.87
69219;BME280;56232;53.384;-2.732;2023-01-31T04:26:11;101705.64;;;8.73;40.80
69219;BME280;56232;53.384;-2.732;2023-01-31T04:28:37;101701.96;;;8.92;40.61
69219;BME280;56232;53.384;-2.732;2023-01-31T04:31:02;101710.22;;;8.94;40.38
69219;BME280;56232;53.384;-2.732;2023-01-31T04:33:28;101709.85;;;8.82;40.47
69219;BME280;56232;53.384;-2.732;2023-01-31T04:35:53;101706.64;;;8.96;40.39
69219;BME280;56232;53.384;-2.732;2023-01-31T04:38:19;101704.89;;;9.02;40.17
69219;BME280;56232;53.384;-2.732;2023-01-31T04:40:44;101704.06;;;8.93;40.24
69219;BME280;56232;53.384;-2.732;2023-01-31T04:43:10;101707.24;;;7.89;40.34
69219;BME280;56232;53.384;-2.732;2023-01-31T04:45:35;101708.30;;;8.40;40.33
69219;BME280;56232;53.384;-2.732;2023-01-31T04:48:01;101707.67;;;9.19;40.32
69219;BME280;56232;53.384;-2.732;2023-01-31T04:50:27;101705.26;;;9.09;40.25
69219;BME280;56232;53.384;-2.732;2023-01-31T04:52:53;101698.85;;;9.06;40.27
69219;BME280;56232;53.384;-2.732;2023-01-31T04:55:19;101689.75;;;9.01;40.31
69219;BME280;56232;53.384;-2.732;2023-01-31T04:57:49;101689.23;;;8.90;40.45
69219;BME280;56232;53.384;-2.732;2023-01-31T05:00:11;101685.78;;;8.92;40.46
69219;BME280;56232;53.384;-2.732;2023-01-31T05:02:35;101688.23;;;8.86;40.68
69219;BME280;56232;53.384;-2.732;2023-01-31T05:05:01;101693.52;;;8.46;40.59
69219;BME280;56232;53.384;-2.732;2023-01-31T05:07:27;101684.85;;;7.95;40.44
69219;BME280;56232;53.384;-2.732;2023-01-31T05:09:52;101688.07;;;8.82;40.70
69219;BME280;56232;53.384;-2.732;2023-01-31T05:12:20;101686.08;;;8.68;40.91
69219;BME280;56232;53.384;-2.732;2023-01-31T05:14:44;101691.05;;;8.48;41.18
69219;BME280;56232;53.384;-2.732;2023-01-31T05:17:10;101699.54;;;8.96;41.23
69219;BME280;56232;53.384;-2.732;2023-01-31T05:19:36;101696.95;;;8.44;41.32
69219;BME280;56232;53.384;-2.732;2023-01-31T05:22:01;101693.31;;;8.54;41.22
69219;BME280;56232;53.384;-2.732;2023-01-31T05:24:29;101679.89;;;8.69;41.13
69219;BME280;56232;53.384;-2.732;2023-01-31T05:26:53;101672.62;;;8.72;41.11
69219;BME280;56232;53.384;-2.732;2023-01-31T05:29:19;101662.21;;;8.76;41.15
69219;BME280;56232;53.384;-2.732;2023-01-31T05:31:44;101676.19;;;8.82;41.17
69219;BME280;56232;53.384;-2.732;2023-01-31T05:34:10;101671.70;;;8.74;41.06
69219;BME280;56232;53.384;-2.732;2023-01-31T05:36:35;101670.53;;;8.91;41.05
69219;BME280;56232;53.384;-2.732;2023-01-31T05:39:01;101671.50;;;9.59;40.98
69219;BME280;56232;53.384;-2.732;2023-01-31T05:41:26;101678.31;;;9.19;40.83
69219;BME280;56232;53.384;-2.732;2023-01-31T05:43:52;101678.14;;;9.13;40.84
69219;BME280;56232;53.384;-2.732;2023-01-31T05:46:18;101675.41;;;9.12;40.92
69219;BME280;56232;53.384;-2.732;2023-01-31T05:48:43;101663.28;;;8.60;40.94
69219;BME280;56232;53.384;-2.732;2023-01-31T05:51:09;101663.07;;;9.30;40.87
69219;BME280;56232;53.384;-2.732;2023-01-31T05:53:34;101663.91;;;9.37;40.82
69219;BME280;56232;53.384;-2.732;2023-01-31T05:56:00;101659.29;;;9.15;41.02
69219;BME280;56232;53.384;-2.732;2023-01-31T05:58:26;101663.24;;;9.04;41.27
69219;BME280;56232;53.384;-2.732;2023-01-31T06:00:57;101663.41;;;8.85;41.37
69219;BME280;56232;53.384;-2.732;2023-01-31T06:03:18;101663.38;;;8.73;41.68
69219;BME280;56232;53.384;-2.732;2023-01-31T06:05:43;101659.90;;;9.18;41.76
69219;BME280;56232;53.384;-2.732;2023-01-31T06:08:08;101654.01;;;8.67;41.83
69219;BME280;56232;53.384;-2.732;2023-01-31T06:10:34;101654.44;;;8.67;41.92
69219;BME280;56232;53.384;-2.732;2023-01-31T06:13:00;101649.41;;;8.77;41.87
69219;BME280;56232;53.384;-2.732;2023-01-31T06:15:26;101653.10;;;8.47;42.20
69219;BME280;56232;53.384;-2.732;2023-01-31T06:17:51;101650.02;;;7.81;42.37
69219;BME280;56232;53.384;-2.732;2023-01-31T06:20:18;101657.16;;;8.50;42.32
69219;BME280;56232;53.384;-2.732;2023-01-31T06:22:43;101660.70;;;8.44;42.44
69219;BME280;56232;53.384;-2.732;2023-01-31T06:25:09;101653.10;;;8.37;42.66
69219;BME280;56232;53.384;-2.732;2023-01-31T06:27:34;101662.11;;;8.44;42.66
69219;BME280;56232;53.384;-2.732;2023-01-31T06:30:00;101653.64;;;8.33;42.78
69219;BME280;56232;53.384;-2.732;2023-01-31T06:32:26;101650.73;;;8.33;42.82
69219;BME280;56232;53.384;-2.732;2023-01-31T06:34:51;101640.12;;;8.36;42.81
69219;BME280;56232;53.384;-2.732;2023-01-31T06:37:17;101648.70;;;8.71;42.87
69219;BME280;56232;53.384;-2.732;2023-01-31T06:39:42;101646.14;;;8.79;42.94
69219;BME280;56232;53.384;-2.732;2023-01-31T06:42:08;101636.17;;;8.07;43.21
69219;BME280;56232;53.384;-2.732;2023-01-31T06:44:34;101638.88;;;8.13;43.28
69219;BME280;56232;53.384;-2.732;2023-01-31T06:46:59;101643.72;;;8.58;43.28
69219;BME280;56232;53.384;-2.732;2023-01-31T06:49:25;101647.18;;;8.71;43.19
69219;BME280;56232;53.384;-2.732;2023-01-31T06:51:51;101646.99;;;8.63;43.30
69219;BME280;56232;53.384;-2.732;2023-01-31T06:54:17;101639.04;;;8.41;43.62
69219;BME280;56232;53.384;-2.732;2023-01-31T06:56:42;101645.62;;;7.80;43.84
69219;BME280;56232;53.384;-2.732;2023-01-31T06:59:08;101650.66;;;7.75;43.92
69219;BME280;56232;53.384;-2.732;2023-01-31T07:01:33;101638.53;;;7.74;43.98
69219;BME280;56232;53.384;-2.732;2023-01-31T07:03:59;101641.29;;;8.27;43.85
69219;BME280;56232;53.384;-2.732;2023-01-31T07:06:24;101647.57;;;8.70;43.99
69219;BME280;56232;53.384;-2.732;2023-01-31T07:08:50;101649.74;;;7.69;44.02
69219;BME280;56232;53.384;-2.732;2023-01-31T07:11:16;101676.46;;;8.75;43.88
69219;BME280;56232;53.384;-2.732;2023-01-31T07:13:41;101680.85;;;8.01;44.14
69219;BME280;56232;53.384;-2.732;2023-01-31T07:16:07;101703.78;;;8.02;44.17
69219;BME280;56232;53.384;-2.732;2023-01-31T07:18:32;101703.93;;;8.35;44.31
69219;BME280;56232;53.384;-2.732;2023-01-31T07:20:58;101705.66;;;8.22;44.39
69219;BME280;56232;53.384;-2.732;2023-01-31T07:23:23;101717.50;;;8.10;44.60
69219;BME280;56232;53.384;-2.732;2023-01-31T07:25:49;101722.21;;;8.13;44.46
69219;BME280;56232;53.384;-2.732;2023-01-31T07:28:15;101716.92;;;8.08;44.47
69219;BME280;56232;53.384;-2.732;2023-01-31T07:30:40;101721.01;;;7.93;44.64
69219;BME280;56232;53.384;-2.732;2023-01-31T07:33:06;101720.79;;;7.44;44.55
69219;BME280;56232;53.384;-2.732;2023-01-31T07:35:31;101724.84;;;7.93;44.33
69219;BME280;56232;53.384;-2.732;2023-01-31T07:37:57;101729.93;;;8.04;44.36
69219;BME280;56232;53.384;-2.732;2023-01-31T07:40:22;101735.40;;;7.96;44.28
69219;BME280;56232;53.384;-2.732;2023-01-31T07:42:48;101736.66;;;8.00;44.24
69219;BME280;56232;53.384;-2.732;2023-01-31T07:45:14;101738.86;;;7.98;44.28
69219;BME280;56232;53.384;-2.732;2023-01-31T07:47:39;101737.80;;;7.59;44.10
69219;BME280;56232;53.384;-2.732;2023-01-31T07:50:05;101736.93;;;8.05;44.09
69219;BME280;56232;53.384;-2.732;2023-01-31T07:52:30;101736.83;;;8.01;43.87
69219;BME280;56232;53.384;-2.732;2023-01-31T07:54:55;101731.16;;;8.03;43.97
69219;BME280;56232;53.384;-2.732;2023-01-31T07:57:21;101747.64;;;8.02;43.98
69219;BME280;56232;53.384;-2.732;2023-01-31T07:59:47;101755.16;;;7.12;43.93
69219;BME280;56232;53.384;-2.732;2023-01-31T08:02:14;101759.66;;;8.10;43.95
69219;BME280;56232;53.384;-2.732;2023-01-31T08:04:38;101765.60;;;8.15;43.86
69219;BME280;56232;53.384;-2.732;2023-01-31T08:07:04;101772.21;;;8.06;43.86
69219;BME280;56232;53.384;-2.732;2023-01-31T08:09:30;101775.94;;;8.09;43.74
69219;BME280;56232;53.384;-2.732;2023-01-31T08:11:55;101780.65;;;7.70;43.59
69219;BME280;56232;53.384;-2.732;2023-01-31T08:14:26;101774.76;;;7.89;43.63
69219;BME280;56232;53.384;-2.732;2023-01-31T08:16:51;101775.28;;;7.68;43.63
69219;BME280;56232;53.384;-2.732;2023-01-31T08:19:11;101783.86;;;6.76;43.67
69219;BME280;56232;53.384;-2.732;2023-01-31T08:21:37;101785.76;;;6.99;43.95
69219;BME280;56232;53.384;-2.732;2023-01-31T08:24:02;101785.05;;;6.67;44.00
69219;BME280;56232;53.384;-2.732;2023-01-31T08:26:27;101779.71;;;6.61;43.82
69219;BME280;56232;53.384;-2.732;2023-01-31T08:28:53;101777.42;;;7.16;43.90
69219;BME280;56232;53.384;-2.732;2023-01-31T08:31:21;101782.60;;;6.51;43.76
69219;BME280;56232;53.384;-2.732;2023-01-31T08:33:44;101790.17;;;6.58;43.55
69219;BME280;56232;53.384;-2.732;2023-01-31T08:36:11;101788.61;;;6.73;43.66
69219;BME280;56232;53.384;-2.732;2023-01-31T08:38:35;101795.44;;;6.65;43.38
69219;BME280;56232;53.384;-2.732;2023-01-31T08:41:01;101794.74;;;6.62;43.75
69219;BME280;56232;53.384;-2.732;2023-01-31T08:43:26;101796.83;;;7.67;43.50
69219;BME280;56232;53.384;-2.732;2023-01-31T08:45:52;101795.76;;;7.27;43.60
69219;BME280;56232;53.384;-2.732;2023-01-31T08:48:18;101800.28;;;7.03;43.05
69219;BME280;56232;53.384;-2.732;2023-01-31T08:50:43;101798.87;;;7.57;42.78
69219;BME280;56232;53.384;-2.732;2023-01-31T08:53:08;101811.79;;;7.97;42.27
69219;BME280;56232;53.384;-2.732;2023-01-31T08:55:35;101803.08;;;7.65;42.17
69219;BME280;56232;53.384;-2.732;2023-01-31T08:57:59;101801.47;;;8.21;42.10
69219;BME280;56232;53.384;-2.732;2023-01-31T09:00:24;101807.78;;;7.78;41.87
69219;BME280;56232;53.384;-2.732;2023-01-31T09:02:51;101795.06;;;7.58;41.62
69219;BME280;56232;53.384;-2.732;2023-01-31T09:05:15;101804.57;;;8.02;41.83
69219;BME280;56232;53.384;-2.732;2023-01-31T09:07:41;101806.25;;;7.28;41.42
69219;BME280;56232;53.384;-2.732;2023-01-31T09:10:07;101802.62;;;8.38;41.85
69219;BME280;56232;53.384;-2.732;2023-01-31T09:12:32;101807.98;;;8.13;41.74
69219;BME280;56232;53.384;-2.732;2023-01-31T09:14:57;101807.90;;;7.52;42.18
69219;BME280;56232;53.384;-2.732;2023-01-31T09:17:23;101805.58;;;8.05;41.86
69219;BME280;56232;53.384;-2.732;2023-01-31T09:19:48;101800.00;;;8.30;41.38
69219;BME280;56232;53.384;-2.732;2023-01-31T09:22:14;101808.48;;;8.27;41.77
69219;BME280;56232;53.384;-2.732;2023-01-31T09:24:40;101807.37;;;7.83;41.15
69219;BME280;56232;53.384;-2.732;2023-01-31T09:27:10;101807.77;;;8.36;41.35
69219;BME280;56232;53.384;-2.732;2023-01-31T09:29:31;101812.18;;;8.06;41.22
69219;BME280;56232;53.384;-2.732;2023-01-31T09:31:56;101818.82;;;7.49;41.39
69219;BME280;56232;53.384;-2.732;2023-01-31T09:34:22;101822.19;;;7.91;41.97
69219;BME280;56232;53.384;-2.732;2023-01-31T09:36:52;101823.87;;;7.31;41.86
69219;BME280;56232;53.384;-2.732;2023-01-31T09:39:13;101821.53;;;7.90;41.83
69219;BME280;56232;53.384;-2.732;2023-01-31T09:41:42;101820.82;;;7.50;41.49
69219;BME280;56232;53.384;-2.732;2023-01-31T09:44:10;101835.17;;;7.91;41.98
69219;BME280;56232;53.384;-2.732;2023-01-31T09:46:34;101835.34;;;8.05;41.64
69219;BME280;56232;53.384;-2.732;2023-01-31T09:48:58;101846.52;;;7.64;41.36
69219;BME280;56232;53.384;-2.732;2023-01-31T09:51:21;101844.14;;;7.96;41.38
69219;BME280;56232;53.384;-2.732;2023-01-31T09:53:46;101848.67;;;8.04;41.19
69219;BME280;56232;53.384;-2.732;2023-01-31T09:56:21;101852.21;;;8.20;41.34
69219;BME280;56232;53.384;-2.732;2023-01-31T09:58:43;101852.28;;;8.00;41.32
69219;BME280;56232;53.384;-2.732;2023-01-31T10:01:10;101858.23;;;7.69;41.36
69219;BME280;56232;53.384;-2.732;2023-01-31T10:03:38;101870.46;;;8.64;41.89
69219;BME280;56232;53.384;-2.732;2023-01-31T10:05:59;101870.56;;;8.59;41.18
69219;BME280;56232;53.384;-2.732;2023-01-31T10:08:27;101873.19;;;8.81;40.56
69219;BME280;56232;53.384;-2.732;2023-01-31T10:10:47;101870.29;;;9.05;40.37
69219;BME280;56232;53.384;-2.732;2023-01-31T10:13:17;101881.25;;;8.99;40.29
69219;BME280;56232;53.384;-2.732;2023-01-31T10:15:39;101888.21;;;9.13;40.37
69219;BME280;56232;53.384;-2.732;2023-01-31T10:18:04;101879.02;;;9.45;40.47
69219;BME280;56232;53.384;-2.732;2023-01-31T10:20:32;101886.29;;;9.18;40.80
69219;BME280;56232;53.384;-2.732;2023-01-31T10:22:56;101883.44;;;9.27;40.43
69219;BME280;56232;53.384;-2.732;2023-01-31T10:25:23;101884.63;;;8.68;40.63
69219;BME280;56232;53.384;-2.732;2023-01-31T10:27:47;101890.35;;;8.63;41.09
69219;BME280;56232;53.384;-2.732;2023-01-31T10:30:15;101893.47;;;7.56;41.43
69219;BME280;56232;53.384;-2.732;2023-01-31T10:32:36;101893.34;;;8.10;41.67
69219;BME280;56232;53.384;-2.732;2023-01-31T10:35:00;101895.62;;;8.33;41.22
69219;BME280;56232;53.384;-2.732;2023-01-31T10:37:29;101893.53;;;8.80;41.17
69219;BME280;56232;53.384;-2.732;2023-01-31T10:39:52;101908.40;;;8.37;40.39
69219;BME280;56232;53.384;-2.732;2023-01-31T10:42:21;101909.16;;;8.57;40.96
69219;BME280;56232;53.384;-2.732;2023-01-31T10:44:44;101914.61;;;8.29;40.98
69219;BME280;56232;53.384;-2.732;2023-01-31T10:47:11;101912.81;;;8.75;41.54
69219;BME280;56232;53.384;-2.732;2023-01-31T10:49:31;101913.97;;;8.44;40.66
69219;BME280;56232;53.384;-2.732;2023-01-31T10:52:06;101913.51;;;8.73;40.82
69219;BME280;56232;53.384;-2.732;2023-01-31T10:54:30;101921.21;;;8.79;40.98
69219;BME280;56232;53.384;-2.732;2023-01-31T10:56:48;101927.07;;;8.41;40.52
69219;BME280;56232;53.384;-2.732;2023-01-31T10:59:17;101927.11;;;8.39;41.90
69219;BME280;56232;53.384;-2.732;2023-01-31T11:01:38;101928.93;;;8.83;41.72
69219;BME280;56232;53.384;-2.732;2023-01-31T11:04:22;101925.43;;;9.44;41.54
69219;BME280;56232;53.384;-2.732;2023-01-31T11:06:29;101921.69;;;8.98;41.68
69219;BME280;56232;53.384;-2.732;2023-01-31T11:08:56;101924.93;;;9.42;41.11
69219;BME280;56232;53.384;-2.732;2023-01-31T11:11:22;101926.62;;;9.31;40.47
69219;BME280;56232;53.384;-2.732;2023-01-31T11:13:54;101932.59;;;8.21;40.92
69219;BME280;56232;53.384;-2.732;2023-01-31T11:16:11;101934.58;;;8.60;41.27
69219;BME280;56232;53.384;-2.732;2023-01-31T11:18:43;101940.91;;;8.96;41.86
69219;BME280;56232;53.384;-2.732;2023-01-31T11:21:03;101943.77;;;8.86;39.88
69219;BME280;56232;53.384;-2.732;2023-01-31T11:23:30;101944.91;;;8.64;41.45
69219;BME280;56232;53.384;-2.732;2023-01-31T11:25:54;101942.48;;;8.47;41.30
69219;BME280;56232;53.384;-2.732;2023-01-31T11:28:21;101949.87;;;8.44;41.24
69219;BME280;56232;53.384;-2.732;2023-01-31T11:30:46;101951.96;;;8.78;41.77
69219;BME280;56232;53.384;-2.732;2023-01-31T11:35:35;101941.96;;;8.60;42.05
69219;BME280;56232;53.384;-2.732;2023-01-31T11:38:02;101942.40;;;8.87;41.62
69219;BME280;56232;53.384;-2.732;2023-01-31T11:40:28;101950.91;;;8.37;41.95
69219;BME280;56232;53.384;-2.732;2023-01-31T11:42:51;101950.60;;;8.34;41.09
69219;BME280;56232;53.384;-2.732;2023-01-31T11:45:17;101941.91;;;8.81;40.88
69219;BME280;56232;53.384;-2.732;2023-01-31T11:47:48;101959.00;;;8.12;41.24
69219;BME280;56232;53.384;-2.732;2023-01-31T11:50:10;101949.51;;;8.32;42.42
69219;BME280;56232;53.384;-2.732;2023-01-31T11:52:36;101954.25;;;7.97;42.44
69219;BME280;56232;53.384;-2.732;2023-01-31T11:54:59;101948.56;;;8.08;41.57
69219;BME280;56232;53.384;-2.732;2023-01-31T11:57:24;101949.19;;;8.31;41.96
69219;BME280;56232;53.384;-2.732;2023-01-31T11:59:49;101946.39;;;8.47;41.44
69219;BME280;56232;53.384;-2.732;2023-01-31T12:02:23;101941.40;;;9.27;40.68
69219;BME280;56232;53.384;-2.732;2023-01-31T12:04:40;101945.39;;;9.31;41.52
69219;BME280;56232;53.384;-2.732;2023-01-31T12:07:07;101944.32;;;8.97;41.92
69219;BME280;56232;53.384;-2.732;2023-01-31T12:11:56;101953.76;;;8.72;40.94
69219;BME280;56232;53.384;-2.732;2023-01-31T12:14:22;101942.62;;;9.48;41.67
69219;BME280;56232;53.384;-2.732;2023-01-31T12:16:47;101952.83;;;8.30;41.18
69219;BME280;56232;53.384;-2.732;2023-01-31T12:19:20;101955.75;;;8.22;41.83
69219;BME280;56232;53.384;-2.732;2023-01-31T12:21:46;101959.62;;;7.93;41.07
69219;BME280;56232;53.384;-2.732;2023-01-31T12:24:11;101962.45;;;8.39;41.92
69219;BME280;56232;53.384;-2.732;2023-01-31T12:26:34;101967.70;;;8.18;40.69
69219;BME280;56232;53.384;-2.732;2023-01-31T12:29:05;101970.45;;;8.79;40.72
69219;BME280;56232;53.384;-2.732;2023-01-31T12:31:32;101962.51;;;9.29;41.69
69219;BME280;56232;53.384;-2.732;2023-01-31T12:33:57;101967.74;;;8.54;41.34
69219;BME280;56232;53.384;-2.732;2023-01-31T12:36:22;101958.49;;;9.50;40.82
69219;BME280;56232;53.384;-2.732;2023-01-31T12:38:47;101971.73;;;9.76;41.09
69219;BME280;56232;53.384;-2.732;2023-01-31T12:41:07;101948.86;;;9.05;41.11
69219;BME280;56232;53.384;-2.732;2023-01-31T12:46:00;101955.06;;;8.84;41.23
69219;BME280;56232;53.384;-2.732;2023-01-31T12:48:32;101952.34;;;9.12;40.83
69219;BME280;56232;53.384;-2.732;2023-01-31T12:50:47;101961.79;;;8.06;42.33
69219;BME280;56232;53.384;-2.732;2023-01-31T12:53:23;101958.90;;;7.86;41.62